Time;durP1;ratioP1;P1;durP2;ratioP2;P2;SDS_P1;SDS_P2;PMS_P1;PMS_P2;Temp;Humidity;BMP_temperature;BMP_pressure;BME280_temperature;BME280_humidity;BME280_pressure;Samples;Min_cycle;Max_cycle;Signal;HPM_P1;HPM_P2
2022/11/17 00:01:37;;;;;;;1.88;1.30;;;16.70;67.10;;;;;;5053967;28;20575;-74
2022/11/17 00:04:03;;;;;;;3.10;1.70;;;16.80;67.20;;;;;;5053926;28;20691;-73
2022/11/17 00:06:28;;;;;;;2.30;1.35;;;16.80;67.20;;;;;;5053631;28;20193;-74
2022/11/17 00:08:54;;;;;;;2.00;1.55;;;16.70;67.20;;;;;;5054040;28;20672;-73
2022/11/17 00:11:19;;;;;;;2.08;1.40;;;16.70;67.20;;;;;;5054099;28;20282;-74
2022/11/17 00:16:29;;;;;;;1.75;1.55;;;16.70;67.10;;;;;;5053487;28;20190;-73
2022/11/17 00:21:38;;;;;;;2.35;1.50;;;16.70;67.00;;;;;;5053506;28;20182;-73
2022/11/17 00:24:04;;;;;;;1.55;1.40;;;16.70;66.90;;;;;;5053983;28;20201;-73
2022/11/17 00:26:34;;;;;;;1.55;1.15;;;16.70;66.90;;;;;;5052824;28;20536;-73
2022/11/17 00:29:00;;;;;;;2.33;1.50;;;16.70;66.90;;;;;;5053554;28;20167;-73
2022/11/17 00:34:14;;;;;;;2.38;1.45;;;16.60;66.80;;;;;;5052937;28;20178;-74
2022/11/17 00:36:44;;;;;;;2.67;1.60;;;16.70;66.70;;;;;;5053444;28;20270;-74
2022/11/17 00:39:10;;;;;;;2.75;1.30;;;16.60;66.60;;;;;;5053636;28;20270;-74
2022/11/17 00:41:36;;;;;;;2.92;1.70;;;16.60;66.70;;;;;;5052254;28;20258;-72
2022/11/17 00:44:01;;;;;;;1.83;1.52;;;16.60;66.50;;;;;;5053595;28;20626;-72
2022/11/17 00:46:27;;;;;;;1.60;1.50;;;16.60;66.60;;;;;;5053663;28;20266;-71
2022/11/17 00:48:53;;;;;;;1.20;1.10;;;16.60;66.60;;;;;;5052698;28;20174;-71
2022/11/17 00:51:18;;;;;;;2.10;1.90;;;16.60;66.50;;;;;;5053071;28;20683;-72
2022/11/17 00:53:44;;;;;;;2.08;1.60;;;16.60;66.50;;;;;;5052797;28;20164;-72
2022/11/17 00:56:10;;;;;;;1.70;1.60;;;16.60;66.60;;;;;;5052340;28;20186;-72
2022/11/17 00:58:35;;;;;;;1.52;1.40;;;16.60;66.40;;;;;;5052713;28;20210;-72
2022/11/17 01:01:01;;;;;;;2.03;1.50;;;16.60;66.50;;;;;;5053114;28;20328;-74
2022/11/17 01:03:27;;;;;;;1.50;1.35;;;16.60;66.40;;;;;;5052263;28;20186;-75
2022/11/17 01:05:52;;;;;;;1.85;1.52;;;16.60;66.50;;;;;;5053031;28;20198;-73
2022/11/17 01:08:18;;;;;;;2.83;1.30;;;16.60;66.50;;;;;;5052262;28;20601;-75
2022/11/17 01:10:43;;;;;;;3.25;1.42;;;16.60;66.40;;;;;;5052557;28;20170;-73
2022/11/17 01:13:09;;;;;;;2.00;1.40;;;16.60;66.50;;;;;;5052829;28;20200;-72
2022/11/17 01:15:34;;;;;;;2.17;1.60;;;16.50;66.40;;;;;;5051847;28;20543;-74
2022/11/17 01:18:00;;;;;;;3.75;1.63;;;16.50;66.60;;;;;;5052828;28;20222;-73
2022/11/17 01:20:25;;;;;;;1.55;1.30;;;16.50;66.30;;;;;;5052811;28;20231;-75
2022/11/17 01:22:53;;;;;;;3.05;1.67;;;16.50;66.40;;;;;;5051925;28;20597;-72
2022/11/17 01:25:18;;;;;;;1.80;1.25;;;16.50;66.40;;;;;;5052752;28;20233;-73
2022/11/17 01:27:45;;;;;;;1.70;1.20;;;16.50;66.30;;;;;;5052503;28;20170;-73
2022/11/17 01:30:11;;;;;;;2.75;1.65;;;16.50;66.30;;;;;;5051937;28;20174;-72
2022/11/17 01:32:36;;;;;;;3.13;1.35;;;16.50;66.40;;;;;;5052014;28;20183;-76
2022/11/17 01:35:02;;;;;;;1.95;1.55;;;16.50;66.10;;;;;;5052651;28;20178;-75
2022/11/17 01:37:28;;;;;;;1.77;1.35;;;16.50;66.40;;;;;;5051488;28;20213;-75
2022/11/17 01:39:53;;;;;;;1.40;1.30;;;16.50;66.30;;;;;;5052563;28;20254;-74
2022/11/17 01:42:23;;;;;;;3.25;1.60;;;16.50;66.40;;;;;;5052630;28;20175;-72
2022/11/17 01:44:52;;;;;;;2.13;1.60;;;16.50;66.20;;;;;;5051528;28;20187;-72
2022/11/17 01:47:49;;;;;;;2.63;1.90;;;16.50;66.30;;;;;;5052434;28;20206;-71
2022/11/17 01:50:23;;;;;;;1.70;1.42;;;16.50;66.20;;;;;;5050677;28;20737;-71
2022/11/17 01:52:50;;;;;;;2.22;1.30;;;16.50;66.20;;;;;;5051584;28;20189;-73
2022/11/17 01:55:15;;;;;;;1.67;1.30;;;16.50;66.30;;;;;;5034623;28;20171;-73
2022/11/17 01:57:53;;;;;;;2.40;1.25;;;16.50;66.30;;;;;;5050024;28;20561;-71
2022/11/17 02:00:19;;;;;;;2.85;1.55;;;16.40;66.30;;;;;;5052150;28;20190;-74
2022/11/17 02:02:44;;;;;;;1.63;1.35;;;16.50;66.30;;;;;;5050780;28;20171;-73
2022/11/17 02:05:24;;;;;;;2.15;1.27;;;16.40;66.20;;;;;;5037869;28;20673;-74
2022/11/17 02:07:51;;;;;;;2.13;1.38;;;16.40;66.20;;;;;;5054944;28;20178;-74
2022/11/17 02:10:16;;;;;;;1.92;1.17;;;16.50;66.30;;;;;;5055057;28;20187;-73
2022/11/17 02:12:42;;;;;;;1.98;1.17;;;16.40;66.20;;;;;;5055199;28;20175;-74
2022/11/17 02:15:08;;;;;;;2.25;1.52;;;16.40;66.30;;;;;;5056160;28;20230;-74
2022/11/17 02:17:39;;;;;;;1.30;1.20;;;16.50;66.30;;;;;;5054509;28;20203;-74
2022/11/17 02:20:13;;;;;;;1.90;1.38;;;16.40;66.30;;;;;;5038573;28;20258;-73
2022/11/17 02:23:11;;;;;;;2.75;1.67;;;16.40;66.30;;;;;;5038843;28;20178;-72
2022/11/17 02:26:01;;;;;;;1.67;1.20;;;16.40;66.30;;;;;;5054643;28;20197;-73
2022/11/17 02:28:27;;;;;;;2.00;1.10;;;16.40;66.20;;;;;;5056272;28;20182;-73
2022/11/17 02:31:16;;;;;;;1.38;1.27;;;16.40;66.30;;;;;;5054573;28;20661;-72
2022/11/17 02:33:57;;;;;;;3.17;1.70;;;16.40;66.40;;;;;;5055273;28;20175;-76
2022/11/17 02:36:28;;;;;;;2.95;1.20;;;16.40;66.20;;;;;;5054886;28;20564;-76
2022/11/17 02:39:14;;;;;;;1.92;1.10;;;16.40;66.30;;;;;;5055918;28;20559;-73
2022/11/17 02:41:55;;;;;;;1.67;1.00;;;16.40;66.20;;;;;;5053787;28;20209;-72
2022/11/17 02:44:47;;;;;;;3.80;1.30;;;16.40;66.30;;;;;;5039353;28;20201;-72
2022/11/17 02:47:16;;;;;;;1.17;0.90;;;16.40;66.30;;;;;;5050886;28;20269;-71
2022/11/17 02:50:18;;;;;;;1.58;1.00;;;16.40;66.30;;;;;;5054433;28;20237;-72
2022/11/17 02:52:43;;;;;;;1.65;1.55;;;16.40;67.10;;;;;;5033181;28;20224;-72
2022/11/17 02:55:09;;;;;;;1.35;1.15;;;16.40;66.30;;;;;;5050343;28;20645;-73
2022/11/17 02:57:36;;;;;;;1.52;1.20;;;16.40;66.30;;;;;;5055353;28;20203;-72
2022/11/17 03:00:09;;;;;;;2.25;1.30;;;16.40;66.30;;;;;;5055787;28;20187;-72
2022/11/17 03:03:25;;;;;;;1.30;1.20;;;16.40;66.30;;;;;;5053215;28;20179;-75
2022/11/17 03:06:14;;;;;;;3.28;1.63;;;16.40;66.30;;;;;;5033104;28;20183;-74
2022/11/17 03:09:06;;;;;;;1.02;0.98;;;16.40;66.30;;;;;;5001805;28;20550;-73
2022/11/17 03:11:44;;;;;;;1.73;1.17;;;16.40;66.30;;;;;;5050326;28;20642;-73
2022/11/17 03:14:35;;;;;;;1.30;1.20;;;16.40;66.20;;;;;;5054257;28;20289;-74
2022/11/17 03:17:04;;;;;;;1.65;1.30;;;16.40;66.30;;;;;;5053416;28;20298;-73
2022/11/17 03:19:46;;;;;;;1.33;1.10;;;16.30;66.20;;;;;;5053926;28;20183;-74
2022/11/17 03:22:25;;;;;;;2.30;1.33;;;16.30;66.30;;;;;;5053475;28;20179;-72
2022/11/17 03:24:55;;;;;;;1.83;1.20;;;16.40;66.30;;;;;;5053584;28;20690;-72
2022/11/17 03:27:28;;;;;;;1.35;1.10;;;16.40;66.30;;;;;;5055251;28;20466;-73
2022/11/17 03:30:02;;;;;;;1.48;1.05;;;16.30;66.20;;;;;;5037004;28;20542;-72
2022/11/17 03:32:36;;;;;;;2.08;1.02;;;16.30;66.30;;;;;;5054865;28;20197;-74
2022/11/17 03:35:09;;;;;;;1.83;1.15;;;16.30;66.30;;;;;;5038332;28;20278;-74
2022/11/17 03:37:37;;;;;;;0.90;0.90;;;16.30;66.20;;;;;;5052807;28;20548;-74
2022/11/17 03:40:06;;;;;;;1.25;0.93;;;16.30;66.30;;;;;;5053855;28;20260;-73
2022/11/17 03:42:33;;;;;;;1.13;1.02;;;16.30;66.20;;;;;;5053312;28;20178;-72
2022/11/17 03:45:10;;;;;;;3.33;1.77;;;16.30;66.30;;;;;;5036282;28;20588;-71
2022/11/17 03:47:35;;;;;;;1.25;1.00;;;16.30;66.30;;;;;;5053483;28;20175;-71
2022/11/17 03:50:26;;;;;;;1.40;1.30;;;16.30;67.10;;;;;;5054796;28;20206;-71
2022/11/17 03:52:51;;;;;;;1.90;1.30;;;16.30;66.30;;;;;;5054370;28;20232;-72
2022/11/17 03:55:17;;;;;;;2.10;1.00;;;16.30;66.30;;;;;;5053213;28;20637;-73
2022/11/17 03:57:50;;;;;;;1.27;0.90;;;16.30;66.30;;;;;;5052131;28;20727;-72
2022/11/17 04:00:16;;;;;;;1.20;0.80;;;16.30;66.30;;;;;;5054615;28;20237;-74
2022/11/17 04:02:42;;;;;;;1.92;1.20;;;16.30;66.30;;;;;;5035999;28;20179;-74
2022/11/17 04:05:09;;;;;;;2.22;1.20;;;16.30;66.30;;;;;;5053931;28;20221;-74
2022/11/17 04:07:42;;;;;;;2.00;1.40;;;16.30;66.30;;;;;;5054192;28;20282;-74
2022/11/17 04:10:15;;;;;;;1.45;1.25;;;16.30;66.30;;;;;;5054422;28;20175;-72
2022/11/17 04:18:09;;;;;;;2.85;1.20;;;16.30;66.30;;;;;;5053974;28;20684;-73
2022/11/17 04:20:34;;;;;;;1.45;1.10;;;16.30;66.30;;;;;;5053175;28;20167;-74
2022/11/17 04:23:07;;;;;;;1.05;0.95;;;16.30;66.30;;;;;;5054164;28;20261;-72
2022/11/17 04:28:37;;;;;;;1.75;1.00;;;16.30;66.30;;;;;;5053876;28;20225;-74
2022/11/17 04:31:06;;;;;;;1.13;0.80;;;16.30;66.30;;;;;;5054097;28;20241;-73
2022/11/17 04:33:31;;;;;;;0.95;0.90;;;16.20;66.20;;;;;;5052586;28;20645;-74
2022/11/17 04:35:57;;;;;;;1.33;0.95;;;16.30;66.30;;;;;;5053654;28;20186;-74
2022/11/17 04:38:22;;;;;;;1.50;1.10;;;16.20;66.20;;;;;;5053572;28;20674;-74
2022/11/17 04:43:32;;;;;;;1.10;0.85;;;16.30;66.40;;;;;;5053356;28;20197;-72
2022/11/17 04:46:01;;;;;;;1.50;1.00;;;16.20;66.20;;;;;;5053803;28;20167;-71
2022/11/17 04:48:26;;;;;;;1.65;1.10;;;16.20;66.10;;;;;;5053111;28;20182;-72
2022/11/17 04:50:55;;;;;;;0.80;0.80;;;16.20;66.20;;;;;;5053420;28;20166;-72
2022/11/17 04:53:21;;;;;;;0.85;0.80;;;16.20;66.20;;;;;;5053238;28;20177;-74
2022/11/17 04:55:46;;;;;;;0.80;0.80;;;16.20;66.20;;;;;;5052874;28;20179;-72
2022/11/17 04:58:12;;;;;;;1.00;0.90;;;16.20;66.30;;;;;;5053163;28;20565;-71
2022/11/17 05:00:37;;;;;;;1.15;1.02;;;16.20;66.20;;;;;;5052179;28;20174;-72
2022/11/17 05:03:03;;;;;;;1.25;0.93;;;16.20;66.20;;;;;;5053270;28;20186;-73
2022/11/17 05:05:28;;;;;;;0.90;0.90;;;16.20;66.20;;;;;;5052887;28;20171;-75
2022/11/17 05:07:54;;;;;;;1.60;1.10;;;16.20;66.20;;;;;;5052533;28;20183;-73
2022/11/17 05:13:20;;;;;;;1.17;0.90;;;16.20;66.20;;;;;;5053093;28;20171;-72
2022/11/17 05:13:21;;;;;;;1.10;1.00;;;16.20;66.30;;;;;;5052921;28;20179;-73
2022/11/17 05:18:41;;;;;;;1.35;1.00;;;16.20;66.30;;;;;;5052719;28;20301;-73
2022/11/17 05:21:07;;;;;;;1.13;1.00;;;16.20;66.30;;;;;;5053230;28;20171;-73
2022/11/17 05:26:17;;;;;;;1.48;1.02;;;16.20;66.20;;;;;;5053018;28;20181;-72
2022/11/17 05:28:43;;;;;;;2.15;1.00;;;16.20;66.20;;;;;;5051850;28;20266;-73
2022/11/17 05:31:08;;;;;;;1.45;1.20;;;16.20;66.30;;;;;;5052845;28;20206;-73
2022/11/17 05:33:34;;;;;;;1.77;0.85;;;16.20;66.30;;;;;;5052636;28;20536;-75
2022/11/17 05:35:59;;;;;;;1.05;0.90;;;16.20;66.30;;;;;;5052482;28;20634;-75
2022/11/17 05:38:25;;;;;;;1.35;0.93;;;16.10;66.30;;;;;;5051961;28;20206;-75
2022/11/17 05:40:50;;;;;;;0.82;0.82;;;16.10;66.30;;;;;;5052575;28;20162;-73
2022/11/17 05:43:16;;;;;;;1.73;0.90;;;16.10;66.20;;;;;;5052140;28;20241;-72
2022/11/17 05:45:43;;;;;;;1.08;0.98;;;16.20;66.30;;;;;;5052432;28;20253;-72
2022/11/17 05:48:09;;;;;;;1.23;1.05;;;16.20;66.40;;;;;;5051697;28;20187;-72
2022/11/17 05:50:34;;;;;;;0.93;0.80;;;16.10;66.30;;;;;;5051651;28;20648;-72
2022/11/17 05:53:00;;;;;;;0.88;0.77;;;16.10;66.30;;;;;;5052303;28;20189;-73
2022/11/17 05:55:25;;;;;;;0.73;0.70;;;16.20;66.30;;;;;;5052498;28;20265;-74
2022/11/17 05:57:51;;;;;;;1.20;0.95;;;16.20;67.20;;;;;;5051544;28;20370;-72
2022/11/17 06:00:16;;;;;;;2.15;1.00;;;16.10;66.30;;;;;;5052548;28;20278;-73
2022/11/17 06:02:48;;;;;;;1.65;0.82;;;16.10;66.30;;;;;;5052358;28;20249;-73
2022/11/17 06:05:13;;;;;;;1.80;1.27;;;16.10;66.30;;;;;;5052141;28;20175;-74
2022/11/17 06:07:39;;;;;;;1.25;0.80;;;16.10;66.30;;;;;;5051176;28;20175;-74
2022/11/17 06:10:05;;;;;;;1.02;0.93;;;16.10;66.40;;;;;;5052655;28;20220;-72
2022/11/17 06:12:30;;;;;;;2.03;0.82;;;16.10;66.40;;;;;;5050288;28;20175;-74
2022/11/17 06:14:56;;;;;;;1.95;1.10;;;16.10;66.30;;;;;;5052221;28;20223;-74
2022/11/17 06:17:27;;;;;;;1.17;0.90;;;16.10;66.30;;;;;;5052273;28;20289;-75
2022/11/17 06:20:11;;;;;;;2.30;1.00;;;16.10;66.30;;;;;;5051812;28;20556;-73
2022/11/17 06:22:36;;;;;;;1.60;0.70;;;16.10;66.30;;;;;;5035431;28;20181;-73
2022/11/17 06:25:02;;;;;;;1.10;1.00;;;16.10;66.40;;;;;;5051616;28;20175;-73
2022/11/17 06:27:29;;;;;;;0.82;0.80;;;16.10;66.40;;;;;;5034233;28;20176;-74
2022/11/17 06:29:55;;;;;;;1.10;0.90;;;16.10;66.30;;;;;;5051144;28;20178;-73
2022/11/17 06:32:20;;;;;;;1.67;0.85;;;16.10;66.30;;;;;;5051414;28;20266;-75
2022/11/17 06:34:47;;;;;;;0.98;0.90;;;16.10;66.40;;;;;;5052136;28;20182;-75
2022/11/17 06:37:12;;;;;;;1.02;0.80;;;16.10;66.40;;;;;;5034502;28;20682;-75
2022/11/17 06:39:38;;;;;;;0.90;0.90;;;16.10;66.40;;;;;;5051256;28;20197;-74
2022/11/17 06:42:03;;;;;;;1.45;1.05;;;16.10;66.40;;;;;;5052067;28;20270;-74
2022/11/17 06:44:29;;;;;;;0.88;0.85;;;16.10;66.40;;;;;;5051935;28;20218;-72
2022/11/17 06:46:54;;;;;;;1.05;0.93;;;16.10;66.40;;;;;;5051505;28;20188;-71
2022/11/17 06:49:20;;;;;;;1.90;1.20;;;16.10;66.40;;;;;;5053064;28;20186;-73
2022/11/17 06:51:46;;;;;;;1.20;0.70;;;16.10;66.40;;;;;;5055556;28;20171;-73
2022/11/17 06:54:13;;;;;;;1.30;1.20;;;16.10;66.40;;;;;;5054980;28;20221;-73
2022/11/17 06:56:38;;;;;;;1.35;1.10;;;16.10;66.40;;;;;;5055202;28;20237;-73
2022/11/17 06:59:04;;;;;;;1.23;0.90;;;16.10;66.40;;;;;;5055717;28;20677;-71
2022/11/17 07:01:29;;;;;;;1.17;0.70;;;16.10;66.40;;;;;;5054460;28;20282;-74
2022/11/17 07:03:55;;;;;;;1.15;1.05;;;16.10;66.40;;;;;;5055624;28;20214;-73
2022/11/17 07:06:21;;;;;;;0.68;0.68;;;16.10;66.40;;;;;;5055775;28;20212;-76
2022/11/17 07:08:46;;;;;;;1.95;0.90;;;16.10;66.50;;;;;;5054439;28;20206;-74
2022/11/17 07:11:13;;;;;;;1.45;0.93;;;16.10;66.30;;;;;;5055313;28;20555;-73
2022/11/17 07:13:39;;;;;;;2.47;1.42;;;16.20;66.30;;;;;;5054553;28;20625;-74
2022/11/17 07:16:10;;;;;;;1.42;1.17;;;16.30;66.20;;;;;;5054728;28;20305;-73
2022/11/17 07:18:35;;;;;;;1.17;1.10;;;16.30;66.00;;;;;;5054864;28;20301;-74
2022/11/17 07:21:05;;;;;;;0.95;0.95;;;16.40;66.10;;;;;;5055148;28;20256;-73
2022/11/17 07:23:31;;;;;;;2.65;0.80;;;16.40;66.00;;;;;;5054788;28;20265;-72
2022/11/17 07:25:57;;;;;;;0.73;0.65;;;16.40;65.90;;;;;;5055107;28;20653;-72
2022/11/17 07:28:22;;;;;;;0.70;0.70;;;16.50;65.80;;;;;;5054627;28;20179;-73
2022/11/17 07:30:48;;;;;;;2.30;0.80;;;16.60;65.70;;;;;;5054932;28;20175;-73
2022/11/17 07:33:13;;;;;;;1.35;0.98;;;16.80;65.60;;;;;;5054970;28;20687;-74
2022/11/17 07:35:39;;;;;;;1.10;1.00;;;16.90;65.30;;;;;;5054222;28;20229;-74
2022/11/17 07:38:04;;;;;;;0.98;0.88;;;17.00;65.10;;;;;;5054735;28;20199;-74
2022/11/17 07:40:30;;;;;;;1.10;0.88;;;17.20;64.80;;;;;;5054629;28;20175;-74
2022/11/17 07:42:56;;;;;;;1.23;0.85;;;17.40;64.30;;;;;;5054335;28;20175;-71
2022/11/17 07:45:22;;;;;;;1.33;1.00;;;17.60;63.60;;;;;;5054990;28;20167;-70
2022/11/17 07:47:55;;;;;;;0.77;0.77;;;18.00;62.70;;;;;;5054528;28;20233;-74
2022/11/17 07:50:20;;;;;;;3.70;1.00;;;18.30;62.00;;;;;;5054093;28;20171;-70
2022/11/17 07:52:52;;;;;;;2.58;0.90;;;18.40;62.20;;;;;;5054383;28;20182;-70
2022/11/17 07:55:18;;;;;;;2.22;0.90;;;18.50;61.10;;;;;;5054723;28;20179;-68
2022/11/17 07:57:43;;;;;;;3.03;1.00;;;18.60;61.00;;;;;;5053380;28;20679;-72
2022/11/17 08:00:10;;;;;;;2.88;1.10;;;18.70;60.90;;;;;;5054406;28;20179;-73
2022/11/17 08:02:35;;;;;;;3.13;1.08;;;18.80;60.80;;;;;;5053367;28;20665;-71
2022/11/17 08:05:00;;;;;;;1.50;0.93;;;18.80;60.70;;;;;;5053521;28;20187;-71
2022/11/17 08:07:26;;;;;;;4.45;1.20;;;18.80;60.60;;;;;;5054304;28;20193;-69
2022/11/17 08:09:52;;;;;;;3.58;1.00;;;18.70;60.70;;;;;;5053933;28;20172;-75
2022/11/17 08:12:17;;;;;;;4.13;1.27;;;18.70;60.90;;;;;;5053947;28;20187;-74
2022/11/17 08:14:43;;;;;;;5.18;1.50;;;18.50;61.10;;;;;;5053758;28;20233;-71
2022/11/17 08:17:08;;;;;;;3.55;1.30;;;18.40;61.60;;;;;;5054128;28;20542;-72
2022/11/17 08:19:34;;;;;;;5.32;1.20;;;18.20;61.60;;;;;;5053118;28;20175;-72
2022/11/17 08:21:59;;;;;;;3.08;1.08;;;18.10;62.20;;;;;;5054007;28;20175;-69
2022/11/17 08:24:25;;;;;;;4.25;1.42;;;18.00;62.50;;;;;;5053597;28;20229;-74
2022/11/17 08:26:52;;;;;;;3.20;1.13;;;17.90;62.80;;;;;;5053749;28;20167;-72
2022/11/17 08:29:17;;;;;;;5.30;1.73;;;17.80;63.10;;;;;;5053814;28;20650;-72
2022/11/17 08:31:45;;;;;;;5.25;1.52;;;17.80;63.30;;;;;;5052915;28;20201;-71
2022/11/17 08:34:11;;;;;;;5.53;1.13;;;17.80;63.30;;;;;;5053827;28;20183;-71
2022/11/17 08:36:36;;;;;;;4.90;1.13;;;17.80;63.40;;;;;;5053405;28;20261;-71
2022/11/17 08:39:02;;;;;;;4.25;1.00;;;17.70;63.30;;;;;;5053193;28;20302;-70
2022/11/17 08:41:27;;;;;;;3.40;1.10;;;17.70;63.40;;;;;;5053738;28;20504;-70
2022/11/17 08:43:53;;;;;;;3.80;1.13;;;17.60;63.40;;;;;;5053670;28;20205;-69
2022/11/17 08:46:18;;;;;;;3.00;1.20;;;17.60;63.60;;;;;;5053030;28;20171;-70
2022/11/17 08:48:44;;;;;;;2.20;1.08;;;17.60;63.70;;;;;;5053314;28;20175;-70
2022/11/17 08:51:10;;;;;;;2.85;1.08;;;17.60;63.80;;;;;;5053664;28;20171;-70
2022/11/17 08:53:36;;;;;;;2.67;0.98;;;17.60;63.80;;;;;;5035006;28;20249;-71
2022/11/17 08:56:09;;;;;;;2.65;1.00;;;17.60;63.80;;;;;;5053623;28;20638;-70
2022/11/17 08:58:41;;;;;;;3.60;1.20;;;17.60;63.80;;;;;;5053096;28;20225;-71
2022/11/17 09:01:11;;;;;;;2.30;1.27;;;17.60;63.70;;;;;;5051495;28;20194;-70
2022/11/17 09:03:37;;;;;;;2.40;0.95;;;17.60;63.70;;;;;;5053101;28;20225;-71
2022/11/17 09:06:03;;;;;;;3.70;0.90;;;17.60;63.80;;;;;;5053507;28;20646;-71
2022/11/17 09:08:29;;;;;;;2.05;1.20;;;17.50;63.70;;;;;;5052516;28;20270;-71
2022/11/17 09:10:54;;;;;;;2.00;1.00;;;17.50;63.90;;;;;;5053461;28;20334;-71
2022/11/17 09:13:20;;;;;;;3.65;1.17;;;17.60;64.00;;;;;;5053092;28;20225;-70
2022/11/17 09:15:45;;;;;;;2.25;0.98;;;17.60;63.90;;;;;;5052242;28;20175;-70
2022/11/17 09:18:11;;;;;;;2.35;0.95;;;17.60;63.80;;;;;;5052916;28;20674;-71
2022/11/17 09:20:36;;;;;;;3.97;0.90;;;17.60;63.70;;;;;;5052400;28;20178;-71
2022/11/17 09:23:02;;;;;;;4.03;1.38;;;17.60;63.60;;;;;;5052813;28;20225;-71
2022/11/17 09:25:28;;;;;;;3.00;1.00;;;17.60;63.60;;;;;;5052940;28;20674;-71
2022/11/17 09:27:53;;;;;;;2.63;0.80;;;17.60;63.80;;;;;;5052473;28;20231;-72
2022/11/17 09:30:21;;;;;;;4.00;1.00;;;17.60;63.80;;;;;;5053051;28;20524;-71
2022/11/17 09:32:48;;;;;;;2.00;1.13;;;17.60;63.80;;;;;;5052652;28;20190;-72
2022/11/17 09:35:13;;;;;;;2.42;1.10;;;17.60;63.80;;;;;;5052443;28;20182;-70
2022/11/17 09:37:39;;;;;;;2.30;0.90;;;17.60;63.70;;;;;;5052595;28;20207;-71
2022/11/17 09:40:05;;;;;;;2.28;0.88;;;17.70;63.60;;;;;;5053022;28;20171;-70
2022/11/17 09:42:35;;;;;;;2.33;0.95;;;17.70;63.50;;;;;;5051724;28;20590;-70
2022/11/17 09:45:21;;;;;;;1.75;1.00;;;17.70;63.50;;;;;;5051755;28;20244;-70
2022/11/17 09:47:55;;;;;;;2.40;0.80;;;17.60;63.50;;;;;;5052651;28;20586;-69
2022/11/17 09:50:23;;;;;;;1.48;1.15;;;17.60;63.60;;;;;;5035116;28;20171;-70
2022/11/17 09:53:01;;;;;;;3.53;1.10;;;17.60;63.80;;;;;;5051264;28;20194;-70
2022/11/17 09:55:39;;;;;;;2.17;0.95;;;17.60;63.80;;;;;;5052811;28;20182;-70
2022/11/17 09:58:06;;;;;;;1.52;0.90;;;17.60;63.70;;;;;;5050632;28;20716;-70
2022/11/17 10:00:32;;;;;;;2.38;0.77;;;17.70;63.60;;;;;;5051375;28;20202;-71
2022/11/17 10:02:58;;;;;;;2.53;0.95;;;17.70;63.50;;;;;;5050881;28;20187;-71
2022/11/17 10:05:31;;;;;;;2.13;0.75;;;17.70;63.40;;;;;;5052705;28;20547;-71
2022/11/17 10:08:05;;;;;;;1.85;0.82;;;17.70;63.50;;;;;;5052612;28;20204;-71
2022/11/17 10:10:38;;;;;;;1.48;0.85;;;17.60;63.50;;;;;;5034376;28;20186;-71
2022/11/17 10:13:04;;;;;;;1.90;0.82;;;17.60;63.60;;;;;;5051305;28;20273;-70
2022/11/17 10:15:44;;;;;;;2.08;0.93;;;17.60;63.80;;;;;;5051054;28;20266;-71
2022/11/17 10:18:12;;;;;;;1.83;1.00;;;17.60;63.70;;;;;;5035641;28;20210;-70
2022/11/17 10:20:37;;;;;;;1.00;0.80;;;17.70;63.60;;;;;;5050873;28;20179;-69
2022/11/17 10:23:03;;;;;;;1.13;0.55;;;17.70;63.50;;;;;;5052342;28;20183;-70
2022/11/17 10:25:42;;;;;;;1.85;0.80;;;17.70;63.50;;;;;;5053243;28;20171;-71
2022/11/17 10:28:22;;;;;;;1.08;0.98;;;17.60;63.30;;;;;;5056280;28;20179;-71
2022/11/17 10:30:59;;;;;;;2.85;0.90;;;17.60;63.50;;;;;;5054825;28;20186;-71
2022/11/17 10:33:32;;;;;;;1.77;0.85;;;17.60;63.60;;;;;;5056257;28;20245;-71
2022/11/17 10:35:58;;;;;;;1.60;0.90;;;17.60;63.70;;;;;;5056265;28;20179;-70
2022/11/17 10:38:23;;;;;;;2.00;0.73;;;17.60;63.70;;;;;;5055466;28;20218;-70
2022/11/17 10:40:49;;;;;;;0.98;0.60;;;17.70;63.60;;;;;;5038032;28;20545;-70
2022/11/17 10:43:24;;;;;;;1.42;0.70;;;17.70;63.40;;;;;;5054855;28;20175;-69
2022/11/17 10:45:52;;;;;;;2.35;0.85;;;17.70;63.40;;;;;;5037838;28;20539;-69
2022/11/17 10:48:20;;;;;;;1.23;0.70;;;17.70;63.40;;;;;;5055004;28;20170;-70
2022/11/17 10:51:14;;;;;;;1.05;0.65;;;17.60;63.40;;;;;;5055663;28;20262;-71
2022/11/17 10:53:42;;;;;;;0.95;0.73;;;17.60;63.40;;;;;;5054852;28;20178;-70
2022/11/17 10:56:15;;;;;;;1.25;0.73;;;17.60;63.50;;;;;;5055707;28;20179;-70
2022/11/17 10:59:00;;;;;;;1.23;0.75;;;17.60;63.60;;;;;;5054381;28;20552;-70
2022/11/17 11:01:32;;;;;;;1.13;0.63;;;17.70;63.50;;;;;;5055184;28;20203;-70
2022/11/17 11:03:58;;;;;;;1.65;0.60;;;17.70;63.40;;;;;;5055654;28;20262;-71
2022/11/17 11:06:25;;;;;;;2.25;0.85;;;17.70;63.40;;;;;;5053679;28;20187;-71
2022/11/17 11:09:11;;;;;;;2.08;0.80;;;17.70;63.40;;;;;;5055215;28;20221;-71
2022/11/17 11:11:46;;;;;;;1.20;0.77;;;17.60;63.30;;;;;;5039745;28;20542;-71
2022/11/17 11:14:24;;;;;;;3.13;0.77;;;17.60;63.40;;;;;;5053397;28;20248;-71
2022/11/17 11:16:50;;;;;;;4.22;0.90;;;17.60;63.40;;;;;;5055046;28;20224;-71
2022/11/17 11:19:17;;;;;;;0.90;0.80;;;17.70;63.50;;;;;;5054300;28;20588;-71
2022/11/17 11:22:20;;;;;;;0.98;0.70;;;17.70;63.50;;;;;;5054539;28;20529;-70
2022/11/17 11:24:53;;;;;;;1.35;0.50;;;17.70;63.30;;;;;;5054659;28;20170;-71
2022/11/17 11:27:50;;;;;;;1.10;0.73;;;17.70;64.10;;;;;;5037090;28;20201;-72
2022/11/17 11:30:16;;;;;;;0.73;0.52;;;17.70;63.30;;;;;;5054003;28;20175;-72
2022/11/17 11:33:22;;;;;;;2.13;1.20;;;17.60;63.40;;;;;;5053506;28;20183;-72
2022/11/17 11:36:13;;;;;;;1.65;0.85;;;17.60;63.50;;;;;;5041130;28;20721;-72
2022/11/17 11:38:55;;;;;;;0.95;0.77;;;17.60;63.60;;;;;;5044957;28;20226;-75
2022/11/17 11:41:34;;;;;;;2.50;0.80;;;17.70;63.60;;;;;;5053153;28;20171;-72
2022/11/17 11:44:26;;;;;;;2.85;0.60;;;17.70;63.50;;;;;;5054679;28;20189;-70
2022/11/17 11:47:07;;;;;;;1.95;0.80;;;17.70;63.40;;;;;;5053153;28;20187;-72
2022/11/17 11:49:52;;;;;;;2.05;1.00;;;17.70;63.50;;;;;;5036344;28;20183;-72
2022/11/17 11:52:20;;;;;;;5.35;1.20;;;17.70;63.50;;;;;;5053969;28;20225;-72
2022/11/17 11:54:53;;;;;;;0.82;0.50;;;17.70;63.60;;;;;;5054047;28;20664;-73
2022/11/17 11:57:21;;;;;;;1.70;0.55;;;17.70;63.80;;;;;;5052651;28;20636;-72
2022/11/17 12:00:03;;;;;;;1.08;0.70;;;17.70;63.80;;;;;;5037007;28;20210;-70
2022/11/17 12:02:41;;;;;;;2.75;0.80;;;17.70;63.70;;;;;;5053519;28;20725;-71
2022/11/17 12:05:38;;;;;;;1.58;0.60;;;17.80;63.70;;;;;;5053403;28;20167;-71
2022/11/17 12:08:13;;;;;;;1.90;0.82;;;17.80;64.50;;;;;;5048861;28;20189;-71
2022/11/17 12:10:52;;;;;;;1.08;0.70;;;17.80;63.70;;;;;;5036689;28;20179;-71
2022/11/17 12:13:19;;;;;;;1.58;0.90;;;17.70;63.70;;;;;;5054166;28;20254;-66
2022/11/17 12:15:44;;;;;;;1.33;0.70;;;17.70;63.60;;;;;;5052838;28;20186;-63
2022/11/17 12:18:17;;;;;;;3.97;1.00;;;17.70;63.70;;;;;;5052659;28;20211;-63
2022/11/17 12:20:55;;;;;;;2.30;0.90;;;17.80;63.90;;;;;;5054182;28;20171;-63
2022/11/17 12:23:46;;;;;;;1.52;0.60;;;17.80;63.60;;;;;;5037058;28;20240;-64
2022/11/17 12:26:20;;;;;;;3.17;0.80;;;17.80;63.70;;;;;;5054336;28;20171;-63
2022/11/17 12:28:45;;;;;;;2.25;1.10;;;17.90;63.50;;;;;;5036044;28;20186;-63
2022/11/17 12:31:31;;;;;;;6.32;0.93;;;17.90;63.40;;;;;;5052294;28;20258;-64
2022/11/17 12:34:00;;;;;;;3.30;0.93;;;17.90;63.40;;;;;;5052873;28;20175;-63
2022/11/17 12:36:32;;;;;;;3.75;0.82;;;17.90;63.40;;;;;;5053868;28;20171;-63
2022/11/17 12:38:59;;;;;;;4.45;0.90;;;18.00;63.50;;;;;;5053003;28;20219;-63
2022/11/17 12:41:47;;;;;;;3.67;0.95;;;17.90;63.60;;;;;;5053860;28;20618;-64
2022/11/17 12:44:43;;;;;;;1.08;0.65;;;17.90;63.70;;;;;;5053595;28;20178;-72
2022/11/17 12:47:35;;;;;;;2.78;0.90;;;17.90;64.00;;;;;;5060431;28;20576;-73
2022/11/17 12:50:25;;;;;;;3.53;0.70;;;17.80;63.80;;;;;;5043969;28;20547;-73
2022/11/17 12:53:11;;;;;;;2.75;1.20;;;17.80;63.90;;;;;;5071361;28;20584;-73
2022/11/17 12:55:50;;;;;;;1.77;0.70;;;17.70;63.90;;;;;;5069347;28;20181;-73
2022/11/17 12:58:32;;;;;;;1.75;0.75;;;17.70;63.90;;;;;;5072227;28;20223;-72
2022/11/17 13:01:19;;;;;;;1.35;0.70;;;17.60;63.90;;;;;;5071704;28;20607;-72
2022/11/17 13:03:58;;;;;;;1.67;0.80;;;17.60;64.00;;;;;;5044818;28;20222;-72
2022/11/17 13:06:23;;;;;;;1.33;0.50;;;17.60;64.10;;;;;;5051582;28;20240;-72
2022/11/17 13:08:56;;;;;;;1.58;0.50;;;17.50;64.10;;;;;;5053047;28;20167;-73
2022/11/17 13:11:22;;;;;;;0.50;0.50;;;17.50;64.00;;;;;;5053278;28;20269;-72
2022/11/17 13:13:47;;;;;;;1.77;0.90;;;17.50;64.00;;;;;;5050824;28;20226;-72
2022/11/17 13:16:19;;;;;;;3.15;0.82;;;17.50;63.90;;;;;;5051927;28;20175;-72
2022/11/17 13:18:46;;;;;;;2.05;0.65;;;17.50;63.90;;;;;;5035021;28;20223;-72
2022/11/17 13:21:31;;;;;;;1.63;0.80;;;17.60;63.90;;;;;;5068296;28;20174;-72
2022/11/17 13:23:57;;;;;;;1.20;0.63;;;17.60;63.80;;;;;;5073194;28;20221;-72
2022/11/17 13:26:37;;;;;;;0.95;0.68;;;17.60;63.80;;;;;;5071825;28;20175;-73
2022/11/17 13:29:04;;;;;;;0.65;0.50;;;17.60;63.80;;;;;;5072539;28;20197;-73
2022/11/17 13:31:30;;;;;;;1.80;0.75;;;17.50;63.80;;;;;;5072954;28;20192;-73